Time;durP1;ratioP1;P1;durP2;ratioP2;P2;SDS_P1;SDS_P2;PMS_P1;PMS_P2;Temp;Humidity;BMP_temperature;BMP_pressure;BME280_temperature;BME280_humidity;BME280_pressure;Samples;Min_cycle;Max_cycle;Signal;HPM_P1;HPM_P2
2022/08/08 00:00:03;;;;;;;6.90;3.50;;;15.00;99.90;;;;;;5032346;28;20052;-60
2022/08/08 00:02:49;;;;;;;5.28;3.38;;;15.00;99.90;;;;;;5012803;28;20036;-61
2022/08/08 00:05:42;;;;;;;4.55;3.13;;;14.90;99.90;;;;;;5027930;28;20037;-61
2022/08/08 00:08:16;;;;;;;5.68;3.45;;;14.90;99.90;;;;;;5021843;28;20041;-60
2022/08/08 00:10:51;;;;;;;6.95;3.67;;;14.90;99.90;;;;;;5029614;28;20033;-60
2022/08/08 00:13:41;;;;;;;5.57;3.40;;;14.90;99.90;;;;;;5029893;28;20491;-60
2022/08/08 00:16:12;;;;;;;4.95;3.22;;;14.80;99.90;;;;;;5032700;28;20112;-60
2022/08/08 00:18:46;;;;;;;6.55;3.50;;;14.80;99.90;;;;;;5030521;28;20053;-60
2022/08/08 00:21:19;;;;;;;5.68;3.75;;;14.80;99.90;;;;;;5030462;28;20051;-60
2022/08/08 00:23:56;;;;;;;;;;;14.70;99.90;;;;;;5031609;28;20049;-61
2022/08/08 00:26:32;;;;;;;6.80;3.88;;;14.70;99.90;;;;;;5030021;28;19929;-61
2022/08/08 00:29:08;;;;;;;6.40;3.60;;;14.60;99.90;;;;;;5032815;28;21403;-59
2022/08/08 00:31:39;;;;;;;5.68;3.70;;;14.60;99.90;;;;;;5011764;28;20534;-60
2022/08/08 00:37:33;;;;;;;;;;;14.50;99.90;;;;;;5011920;28;20080;-60
2022/08/08 00:40:41;;;;;;;5.22;3.80;;;14.40;99.90;;;;;;5022498;28;19975;-61
2022/08/08 00:43:25;;;;;;;5.25;4.47;;;14.40;99.90;;;;;;4975370;28;20049;-60
2022/08/08 00:46:03;;;;;;;5.43;4.43;;;14.40;99.90;;;;;;5020159;28;20053;-60
2022/08/08 00:49:03;;;;;;;6.53;4.78;;;14.40;99.90;;;;;;5047444;28;20095;-61
2022/08/08 00:51:57;;;;;;;5.40;4.22;;;14.50;99.90;;;;;;5047490;28;20046;-60
2022/08/08 00:54:53;;;;;;;4.60;3.92;;;14.40;99.90;;;;;;5049316;28;20090;-60
2022/08/08 00:57:45;;;;;;;5.80;4.25;;;14.40;99.90;;;;;;5049169;28;20051;-60
2022/08/08 01:00:20;;;;;;;6.60;4.10;;;14.40;99.90;;;;;;5031338;28;20052;-60
2022/08/08 01:03:04;;;;;;;6.22;4.00;;;14.40;99.90;;;;;;5033610;28;20037;-60
2022/08/08 01:05:39;;;;;;;5.80;3.90;;;14.30;99.90;;;;;;5048578;28;20045;-60
2022/08/08 01:08:29;;;;;;;10.73;3.30;;;14.30;99.90;;;;;;5048868;28;20032;-61
2022/08/08 01:11:26;;;;;;;3.78;3.15;;;14.30;99.90;;;;;;5051767;28;20118;-60
2022/08/08 01:14:19;;;;;;;3.28;2.60;;;14.20;99.90;;;;;;5050190;28;20072;-61
2022/08/08 01:17:16;;;;;;;4.60;3.03;;;14.20;99.90;;;;;;5048690;28;20133;-60
2022/08/08 01:20:00;;;;;;;3.03;2.50;;;14.20;99.90;;;;;;5048028;28;20478;-61
2022/08/08 01:22:57;;;;;;;3.25;2.58;;;14.10;99.90;;;;;;5029296;28;20497;-60
2022/08/08 01:25:44;;;;;;;4.95;2.58;;;14.10;99.90;;;;;;5051318;28;20056;-60
2022/08/08 01:28:40;;;;;;;4.32;2.40;;;14.10;99.90;;;;;;5031107;28;20116;-60
2022/08/08 01:31:35;;;;;;;3.38;2.63;;;14.10;99.90;;;;;;5049275;28;20044;-60
2022/08/08 01:34:25;;;;;;;4.97;3.17;;;14.10;99.90;;;;;;5050739;28;20040;-61
2022/08/08 01:37:26;;;;;;;3.80;2.83;;;14.10;99.90;;;;;;5049168;28;20073;-60
2022/08/08 01:40:04;;;;;;;7.35;3.70;;;14.10;99.90;;;;;;5030720;28;20041;-61
2022/08/08 01:42:44;;;;;;;7.78;3.88;;;14.00;99.90;;;;;;5048858;28;20041;-60
2022/08/08 01:45:25;;;;;;;5.97;3.85;;;14.00;99.90;;;;;;5047423;28;20044;-60
2022/08/08 01:48:16;;;;;;;5.85;3.90;;;14.00;99.90;;;;;;5048643;28;20056;-60
2022/08/08 01:51:02;;;;;;;8.80;4.28;;;14.00;99.90;;;;;;5049554;28;20082;-60
2022/08/08 01:53:49;;;;;;;6.78;4.30;;;14.00;99.90;;;;;;5011808;28;20044;-60
2022/08/08 01:56:53;;;;;;;7.13;4.32;;;14.00;99.90;;;;;;5031232;28;20394;-60
2022/08/08 01:59:31;;;;;;;;;;;14.00;99.90;;;;;;5030684;28;20134;-60
2022/08/08 02:02:29;;;;;;;6.32;3.97;;;14.00;99.90;;;;;;5031770;28;19920;-61
2022/08/08 02:05:07;;;;;;;5.82;4.20;;;14.00;99.90;;;;;;5048849;28;20045;-60
2022/08/08 02:07:54;;;;;;;3.88;3.05;;;13.90;99.90;;;;;;5051912;28;20116;-61
2022/08/08 02:10:59;;;;;;;4.55;3.72;;;14.00;99.90;;;;;;5050084;28;20040;-61
2022/08/08 02:13:31;;;;;;;5.22;3.00;;;14.00;99.90;;;;;;5050295;28;20044;-60
2022/08/08 02:16:59;;;;;;;7.28;4.10;;;13.90;99.90;;;;;;5050979;28;20175;-60
2022/08/08 02:19:38;;;;;;;6.82;4.00;;;13.90;99.90;;;;;;5003332;28;20572;-60
2022/08/08 02:22:31;;;;;;;10.63;4.00;;;13.90;99.90;;;;;;5052220;28;20166;-61
2022/08/08 02:25:31;;;;;;;5.38;4.15;;;14.00;99.90;;;;;;5053684;28;20115;-60
2022/08/08 02:28:23;;;;;;;9.35;4.53;;;14.00;99.90;;;;;;5050938;28;20040;-60
2022/08/08 02:31:00;;;;;;;6.30;4.32;;;14.00;99.90;;;;;;5052210;28;20110;-61
2022/08/08 02:33:59;;;;;;;6.57;4.53;;;14.00;99.90;;;;;;5045910;28;20081;-61
2022/08/08 02:36:36;;;;;;;8.35;5.38;;;14.10;99.90;;;;;;5039802;28;20041;-60
2022/08/08 02:39:30;;;;;;;8.35;5.28;;;14.10;99.90;;;;;;5037777;28;20044;-60
2022/08/08 02:42:08;;;;;;;7.35;5.30;;;14.10;99.90;;;;;;5050855;28;20078;-60
2022/08/08 02:44:55;;;;;;;6.88;4.68;;;14.20;99.90;;;;;;5054317;28;20085;-59
2022/08/08 02:48:01;;;;;;;9.00;5.60;;;14.20;99.90;;;;;;5051526;28;20563;-60
2022/08/08 02:51:08;;;;;;;10.73;6.18;;;14.20;99.90;;;;;;5050639;28;20045;-60
2022/08/08 02:53:59;;;;;;;8.55;5.43;;;14.20;99.90;;;;;;5050232;28;20036;-60
2022/08/08 02:56:52;;;;;;;9.32;6.00;;;14.20;99.90;;;;;;5051697;28;20037;-61
2022/08/08 02:59:55;;;;;;;9.43;4.97;;;14.20;99.90;;;;;;5055761;28;20049;-60
2022/08/08 03:02:48;;;;;;;;;;;14.30;99.90;;;;;;5044828;28;20631;-60
2022/08/08 03:05:19;;;;;;;6.50;5.53;;;14.30;99.90;;;;;;5033960;28;19924;-61
2022/08/08 03:08:03;;;;;;;6.53;5.15;;;14.20;99.90;;;;;;5052332;28;20051;-60
2022/08/08 03:10:39;;;;;;;7.95;5.63;;;14.30;99.90;;;;;;5051300;28;20163;-60
2022/08/08 03:13:41;;;;;;;8.93;5.72;;;14.30;99.90;;;;;;5050680;28;20040;-60
2022/08/08 03:16:22;;;;;;;6.65;5.25;;;14.30;99.90;;;;;;5037756;28;20915;-61
2022/08/08 03:18:58;;;;;;;10.00;5.65;;;14.20;99.90;;;;;;5051591;28;20468;-60
2022/08/08 03:21:24;;;;;;;8.13;5.32;;;14.20;99.90;;;;;;5014178;28;20044;-60
2022/08/08 03:23:49;;;;;;;8.90;5.18;;;14.20;99.90;;;;;;5050625;28;20064;-60
2022/08/08 03:26:24;;;;;;;7.72;4.88;;;14.20;99.90;;;;;;5031345;28;20056;-60
2022/08/08 03:28:55;;;;;;;6.40;4.45;;;14.20;99.90;;;;;;5034781;28;20044;-60
2022/08/08 03:34:08;;;;;;;9.50;4.60;;;14.20;99.90;;;;;;5051805;28;20728;-60
2022/08/08 03:36:39;;;;;;;7.00;4.82;;;14.20;99.90;;;;;;5049574;28;20048;-60
2022/08/08 03:39:05;;;;;;;8.60;4.85;;;14.20;99.90;;;;;;5052192;28;20677;-60
2022/08/08 03:41:34;;;;;;;10.40;5.10;;;14.10;99.90;;;;;;5034497;28;21049;-60
2022/08/08 03:44:00;;;;;;;10.55;4.93;;;14.10;99.90;;;;;;5034534;28;20387;-60
2022/08/08 03:46:26;;;;;;;11.02;5.40;;;14.10;99.90;;;;;;5053003;28;20041;-60
2022/08/08 03:49:00;;;;;;;9.80;5.22;;;14.10;99.90;;;;;;5049658;28;20072;-60
2022/08/08 03:51:27;;;;;;;8.65;5.32;;;14.10;99.90;;;;;;5049683;28;20441;-60
2022/08/08 03:53:53;;;;;;;6.63;4.90;;;14.10;99.90;;;;;;5051469;28;20141;-59
2022/08/08 03:56:21;;;;;;;6.75;5.82;;;14.10;99.90;;;;;;5043571;28;20045;-60
2022/08/08 03:58:54;;;;;;;9.73;5.20;;;14.10;99.90;;;;;;5053940;28;20040;-60
2022/08/08 04:01:20;;;;;;;7.82;5.38;;;14.20;99.90;;;;;;5050929;28;20719;-60
2022/08/08 04:03:48;;;;;;;9.57;5.78;;;14.10;99.90;;;;;;5036264;28;20095;-60
2022/08/08 04:06:14;;;;;;;7.93;4.97;;;14.20;99.90;;;;;;5051278;28;20059;-61
2022/08/08 04:08:41;;;;;;;11.02;5.68;;;14.20;99.90;;;;;;5032331;28;20040;-61
2022/08/08 04:11:07;;;;;;;9.05;5.38;;;14.20;99.90;;;;;;5033597;28;20134;-60
2022/08/08 04:13:34;;;;;;;7.03;5.03;;;14.30;99.90;;;;;;5048974;28;20037;-61
2022/08/08 04:16:00;;;;;;;13.63;5.32;;;14.30;99.90;;;;;;5039061;28;20578;-60
2022/08/08 04:18:26;;;;;;;8.10;5.47;;;14.30;99.90;;;;;;5033890;28;20754;-60
2022/08/08 04:20:52;;;;;;;8.35;5.55;;;14.20;99.90;;;;;;5041387;28;20206;-60
2022/08/08 04:23:17;;;;;;;11.55;5.90;;;14.30;99.90;;;;;;5050117;28;20510;-60
2022/08/08 04:25:43;;;;;;;12.57;5.65;;;14.20;99.90;;;;;;5032690;28;20136;-61
2022/08/08 04:28:09;;;;;;;9.95;5.70;;;14.30;99.90;;;;;;5049993;28;20071;-60
2022/08/08 04:30:35;;;;;;;12.18;6.30;;;14.20;99.90;;;;;;5013218;28;20551;-60
2022/08/08 04:33:01;;;;;;;5.97;5.22;;;14.20;99.90;;;;;;5025411;28;20044;-60
2022/08/08 04:35:27;;;;;;;9.02;6.25;;;14.30;99.90;;;;;;5048932;28;20166;-60
2022/08/08 04:37:54;;;;;;;8.20;5.68;;;14.30;99.90;;;;;;5050353;28;20052;-60
2022/08/08 04:40:20;;;;;;;8.68;6.07;;;14.30;99.90;;;;;;5031717;28;20162;-60
2022/08/08 04:42:47;;;;;;;8.60;5.72;;;14.30;99.90;;;;;;5029149;28;20072;-60
2022/08/08 04:45:13;;;;;;;9.13;6.32;;;14.30;99.90;;;;;;5047079;28;20048;-60
2022/08/08 04:47:39;;;;;;;10.73;6.32;;;14.30;99.90;;;;;;5048510;28;20620;-59
2022/08/08 04:50:05;;;;;;;10.50;6.72;;;14.30;99.90;;;;;;5050472;28;20040;-61
2022/08/08 04:52:31;;;;;;;9.10;6.05;;;14.30;99.90;;;;;;5047775;28;20602;-60
2022/08/08 04:54:57;;;;;;;9.02;6.45;;;14.30;99.90;;;;;;5032368;28;20056;-60
2022/08/08 04:57:23;;;;;;;9.75;6.32;;;14.40;99.90;;;;;;5048116;28;20045;-61
2022/08/08 04:59:49;;;;;;;8.07;6.32;;;14.30;99.90;;;;;;5024226;28;20053;-60
2022/08/08 05:02:14;;;;;;;7.60;5.75;;;14.40;99.90;;;;;;5034181;28;20091;-60
2022/08/08 05:04:42;;;;;;;9.77;6.63;;;14.40;99.90;;;;;;5049051;28;20053;-60
2022/08/08 05:07:08;;;;;;;8.48;6.20;;;14.40;99.90;;;;;;5047927;28;20437;-60
2022/08/08 05:09:34;;;;;;;9.45;6.57;;;14.40;99.90;;;;;;5049028;28;20158;-60
2022/08/08 05:12:02;;;;;;;10.80;6.53;;;14.50;99.90;;;;;;5050211;28;20037;-60
2022/08/08 05:14:29;;;;;;;9.15;6.10;;;14.50;99.90;;;;;;5025997;28;20133;-60
2022/08/08 05:16:55;;;;;;;14.77;6.88;;;14.50;99.90;;;;;;5014372;28;20123;-60
2022/08/08 05:19:21;;;;;;;8.23;6.68;;;14.60;99.90;;;;;;5031848;28;20555;-60
2022/08/08 05:21:48;;;;;;;11.07;6.70;;;14.60;99.90;;;;;;5015028;28;20052;-60
2022/08/08 05:24:15;;;;;;;8.55;5.88;;;14.70;99.90;;;;;;5050421;28;20059;-60
2022/08/08 05:26:45;;;;;;;12.27;6.68;;;14.70;99.90;;;;;;5050816;28;20048;-60
2022/08/08 05:29:11;;;;;;;11.35;6.63;;;14.70;99.90;;;;;;5029925;28;20053;-60
2022/08/08 05:31:37;;;;;;;13.43;6.63;;;14.80;99.90;;;;;;5014565;28;20041;-61
2022/08/08 05:34:17;;;;;;;7.95;6.20;;;14.90;99.90;;;;;;5034656;28;20514;-61
2022/08/08 05:36:46;;;;;;;9.20;6.45;;;14.90;99.90;;;;;;5050912;28;20041;-60
2022/08/08 05:39:13;;;;;;;10.95;6.15;;;15.00;99.90;;;;;;5047998;28;20059;-60
2022/08/08 05:41:41;;;;;;;12.13;6.57;;;15.00;99.90;;;;;;5048547;28;20091;-61
2022/08/08 05:44:12;;;;;;;12.50;6.70;;;15.10;99.90;;;;;;5049173;28;20095;-60
2022/08/08 05:46:39;;;;;;;13.48;6.13;;;15.10;99.90;;;;;;5031313;28;20040;-60
2022/08/08 05:49:06;;;;;;;8.40;6.10;;;15.20;99.90;;;;;;5052651;28;20510;-60
2022/08/08 05:51:33;;;;;;;12.30;6.30;;;15.20;99.90;;;;;;5047737;28;20067;-60
2022/08/08 05:53:59;;;;;;;13.25;6.55;;;15.30;99.90;;;;;;5039540;28;20135;-60
2022/08/08 05:56:26;;;;;;;10.60;5.90;;;15.40;99.90;;;;;;5060237;28;20120;-61
2022/08/08 05:59:03;;;;;;;10.32;5.95;;;15.40;99.90;;;;;;5038499;28;20126;-60
2022/08/08 06:01:30;;;;;;;11.95;5.90;;;15.50;99.90;;;;;;5056140;28;20520;-60
2022/08/08 06:04:02;;;;;;;10.23;6.15;;;15.50;99.90;;;;;;5047157;28;20060;-61
2022/08/08 06:06:31;;;;;;;11.90;5.70;;;15.60;99.90;;;;;;5054306;28;20468;-60
2022/08/08 06:09:03;;;;;;;14.82;6.38;;;15.60;99.90;;;;;;5056737;28;20040;-61
2022/08/08 06:11:31;;;;;;;11.80;5.97;;;15.70;99.90;;;;;;5032728;28;20048;-59
2022/08/08 06:13:58;;;;;;;8.95;5.75;;;15.70;99.90;;;;;;5057180;28;20051;-61
2022/08/08 06:16:25;;;;;;;10.85;6.30;;;15.80;99.90;;;;;;5047756;28;20517;-60
2022/08/08 06:18:53;;;;;;;12.95;6.18;;;15.80;99.90;;;;;;5056488;28;20033;-60
2022/08/08 06:21:20;;;;;;;10.57;5.40;;;15.90;99.90;;;;;;5054539;28;20053;-60
2022/08/08 06:23:45;;;;;;;11.82;5.70;;;15.90;99.90;;;;;;5040236;28;20478;-60
2022/08/08 06:26:12;;;;;;;9.88;5.68;;;16.00;99.90;;;;;;5051336;28;20045;-60
2022/08/08 06:29:04;;;;;;;8.55;5.85;;;16.00;99.90;;;;;;5036979;28;20040;-60
2022/08/08 06:31:34;;;;;;;10.57;5.80;;;16.10;99.90;;;;;;5029774;28;20045;-61
2022/08/08 06:34:13;;;;;;;10.55;6.18;;;16.10;99.90;;;;;;5056868;28;20601;-59
2022/08/08 06:36:41;;;;;;;11.85;6.13;;;16.20;99.90;;;;;;5045333;28;20128;-61
2022/08/08 06:39:08;;;;;;;9.90;6.05;;;16.30;99.90;;;;;;5053089;28;20577;-60
2022/08/08 06:42:01;;;;;;;7.35;4.95;;;16.30;99.90;;;;;;5056966;28;20056;-61
2022/08/08 06:44:29;;;;;;;7.15;5.47;;;16.40;99.90;;;;;;5038081;28;20052;-60
2022/08/08 06:46:56;;;;;;;11.90;5.93;;;16.40;99.90;;;;;;5046569;28;20143;-60
2022/08/08 06:49:22;;;;;;;8.45;5.47;;;16.50;99.90;;;;;;5046354;28;20037;-61
2022/08/08 06:51:48;;;;;;;12.52;5.90;;;16.50;99.90;;;;;;5055954;28;20491;-60
2022/08/08 06:54:14;;;;;;;10.10;5.97;;;16.60;99.90;;;;;;5039076;28;20049;-60
2022/08/08 06:56:42;;;;;;;11.40;5.95;;;16.70;99.90;;;;;;5039356;28;20041;-60
2022/08/08 06:59:08;;;;;;;8.32;5.40;;;16.70;99.90;;;;;;5055404;28;20514;-61
2022/08/08 07:01:43;;;;;;;8.90;5.80;;;16.80;99.90;;;;;;5042412;28;20106;-60
2022/08/08 07:04:23;;;;;;;10.00;6.10;;;16.90;99.90;;;;;;5049594;28;20045;-60
2022/08/08 07:06:54;;;;;;;7.95;5.32;;;16.90;99.90;;;;;;5033314;28;20056;-61
2022/08/08 07:09:27;;;;;;;7.75;5.43;;;16.90;99.90;;;;;;5050458;28;20040;-61
2022/08/08 07:11:56;;;;;;;11.23;5.70;;;16.90;99.90;;;;;;5052799;28;20147;-60
2022/08/08 07:14:31;;;;;;;13.18;5.60;;;17.00;99.90;;;;;;5033299;28;20044;-60
2022/08/08 07:17:08;;;;;;;7.82;5.38;;;17.00;99.90;;;;;;5049807;28;20045;-61
2022/08/08 07:20:03;;;;;;;13.50;6.10;;;17.10;99.90;;;;;;5030784;28;20598;-61
2022/08/08 07:22:58;;;;;;;12.65;6.38;;;17.20;99.90;;;;;;5050428;28;20041;-60
2022/08/08 07:25:25;;;;;;;9.55;5.75;;;17.30;99.90;;;;;;5039158;28;20084;-61
2022/08/08 07:27:58;;;;;;;9.57;5.82;;;17.50;99.90;;;;;;5052743;28;20644;-60
2022/08/08 07:30:24;;;;;;;9.40;5.90;;;17.70;99.90;;;;;;5051765;28;20041;-60
2022/08/08 07:32:50;;;;;;;7.38;5.13;;;17.80;99.90;;;;;;5050747;28;20540;-61
2022/08/08 07:35:16;;;;;;;8.85;4.35;;;18.00;99.90;;;;;;5052531;28;20114;-61
2022/08/08 07:37:44;;;;;;;7.15;4.03;;;18.20;99.90;;;;;;5037040;28;20060;-61
2022/08/08 07:40:13;;;;;;;6.30;3.33;;;18.40;99.90;;;;;;5049954;28;20079;-61
2022/08/08 07:42:41;;;;;;;7.82;2.10;;;18.50;99.90;;;;;;5047490;28;20044;-60
2022/08/08 07:45:07;;;;;;;5.15;2.40;;;18.70;99.90;;;;;;5052485;28;20075;-61
2022/08/08 07:47:34;;;;;;;5.13;1.88;;;18.80;99.90;;;;;;5052167;28;20110;-61
2022/08/08 07:50:00;;;;;;;3.13;1.75;;;19.00;99.90;;;;;;5051306;28;20048;-60
2022/08/08 07:52:29;;;;;;;4.93;1.73;;;19.20;99.90;;;;;;5048764;28;20080;-61
2022/08/08 07:55:08;;;;;;;4.20;1.85;;;19.50;99.90;;;;;;5037556;28;20041;-61
2022/08/08 07:58:08;;;;;;;2.47;1.85;;;19.70;99.90;;;;;;5046970;28;20052;-60
2022/08/08 08:00:46;;;;;;;3.85;1.63;;;19.80;99.90;;;;;;5050108;28;20059;-61
2022/08/08 08:03:18;;;;;;;6.28;1.95;;;20.00;99.90;;;;;;5052716;28;20648;-61
2022/08/08 08:05:48;;;;;;;4.75;1.83;;;20.10;99.90;;;;;;5051284;28;20091;-60
2022/08/08 08:08:19;;;;;;;2.63;1.30;;;20.10;99.90;;;;;;5037372;28;20551;-60
2022/08/08 08:10:49;;;;;;;3.17;1.40;;;20.10;99.90;;;;;;5034615;28;20045;-61
2022/08/08 08:13:43;;;;;;;9.90;1.98;;;20.10;99.90;;;;;;5033319;28;20131;-61
2022/08/08 08:16:14;;;;;;;2.95;1.50;;;20.30;99.90;;;;;;5051345;28;20052;-61
2022/08/08 08:18:51;;;;;;;3.35;1.50;;;20.30;99.90;;;;;;5047727;28;20080;-60
2022/08/08 08:21:19;;;;;;;7.80;1.45;;;20.30;99.90;;;;;;5050032;28;20127;-61
2022/08/08 08:23:44;;;;;;;7.07;1.55;;;20.30;99.90;;;;;;5032413;28;20053;-60
2022/08/08 08:26:12;;;;;;;3.00;1.60;;;20.30;99.90;;;;;;5035339;28;20091;-61
2022/08/08 08:28:39;;;;;;;3.28;1.20;;;20.40;99.90;;;;;;5049716;28;20052;-61
2022/08/08 08:31:06;;;;;;;2.63;1.40;;;20.40;99.90;;;;;;5051678;28;20049;-60
2022/08/08 08:33:32;;;;;;;4.60;1.30;;;20.50;99.90;;;;;;5052285;28;20445;-61
2022/08/08 08:35:58;;;;;;;5.15;1.50;;;20.60;99.90;;;;;;5049938;28;20109;-61
2022/08/08 08:38:24;;;;;;;1.98;1.33;;;20.60;99.70;;;;;;5041200;28;20044;-61
2022/08/08 08:40:50;;;;;;;3.60;1.45;;;20.70;99.60;;;;;;5050068;28;20047;-61
2022/08/08 08:43:17;;;;;;;4.07;1.30;;;20.80;99.50;;;;;;5032091;28;20053;-61
2022/08/08 08:45:45;;;;;;;6.32;1.52;;;20.90;99.40;;;;;;5047543;28;20339;-61
2022/08/08 08:48:12;;;;;;;3.03;1.35;;;21.00;99.40;;;;;;5048543;28;20060;-61
2022/08/08 08:50:40;;;;;;;3.60;1.30;;;21.00;99.00;;;;;;5051800;28;20130;-61
2022/08/08 08:53:08;;;;;;;3.38;1.30;;;21.10;98.90;;;;;;5050434;28;20502;-61
2022/08/08 08:55:37;;;;;;;4.28;1.55;;;21.10;98.60;;;;;;5033771;28;20107;-61
2022/08/08 08:58:04;;;;;;;3.30;1.42;;;21.10;98.10;;;;;;5033842;28;20119;-61
2022/08/08 09:00:33;;;;;;;4.15;1.02;;;21.20;97.80;;;;;;5042494;28;20505;-61
2022/08/08 09:02:59;;;;;;;2.63;1.10;;;21.20;97.40;;;;;;5050669;28;20130;-61
2022/08/08 09:05:28;;;;;;;3.38;1.13;;;21.30;97.20;;;;;;5030700;28;20105;-61
2022/08/08 09:07:58;;;;;;;3.30;1.20;;;21.40;97.10;;;;;;5034289;28;20063;-61
2022/08/08 09:10:27;;;;;;;5.13;1.27;;;21.40;96.70;;;;;;5040259;28;20179;-61
2022/08/08 09:12:55;;;;;;;4.85;1.75;;;21.50;96.00;;;;;;5046944;28;20996;-61
2022/08/08 09:15:21;;;;;;;7.80;1.73;;;21.50;96.00;;;;;;5049255;28;20059;-61
2022/08/08 09:17:47;;;;;;;3.28;1.30;;;21.60;96.10;;;;;;5050326;28;20510;-61
2022/08/08 09:20:15;;;;;;;2.47;0.90;;;21.60;96.30;;;;;;5049462;28;20391;-61
2022/08/08 09:22:41;;;;;;;4.47;1.25;;;21.70;95.90;;;;;;5025117;28;20483;-61
2022/08/08 09:25:08;;;;;;;2.70;1.40;;;21.70;95.60;;;;;;5031482;28;20083;-61
2022/08/08 09:27:35;;;;;;;5.25;1.00;;;21.80;95.60;;;;;;5034570;28;20503;-61
2022/08/08 09:30:07;;;;;;;3.63;1.00;;;22.00;95.20;;;;;;5051505;28;20390;-61
2022/08/08 09:32:49;;;;;;;3.85;1.10;;;22.00;94.80;;;;;;5031232;28;20095;-61
2022/08/08 09:35:23;;;;;;;5.13;1.30;;;22.00;94.50;;;;;;5049255;28;20049;-61
2022/08/08 09:37:52;;;;;;;2.67;1.17;;;22.10;94.50;;;;;;5048327;28;20045;-61
2022/08/08 09:40:20;;;;;;;3.50;1.00;;;22.10;94.50;;;;;;5032074;28;20046;-61
2022/08/08 09:43:08;;;;;;;3.63;1.10;;;22.20;94.50;;;;;;5049158;28;20499;-61
2022/08/08 09:45:49;;;;;;;2.17;1.00;;;22.30;94.30;;;;;;5030322;28;20385;-61
2022/08/08 09:48:17;;;;;;;3.65;1.20;;;22.30;93.70;;;;;;5030647;28;20107;-61
2022/08/08 09:50:45;;;;;;;6.00;1.00;;;22.40;93.40;;;;;;5048962;28;20052;-61
2022/08/08 09:53:17;;;;;;;3.75;1.00;;;22.40;93.30;;;;;;5049958;28;20044;-61
2022/08/08 09:55:45;;;;;;;7.03;1.23;;;22.40;92.90;;;;;;5048426;28;20053;-61
2022/08/08 09:58:19;;;;;;;4.40;1.00;;;22.40;92.90;;;;;;4999064;28;20483;-61
2022/08/08 10:00:48;;;;;;;3.65;0.90;;;22.50;92.90;;;;;;5048446;28;20052;-62
2022/08/08 10:03:17;;;;;;;5.47;1.17;;;22.60;92.80;;;;;;5049252;28;20155;-62
2022/08/08 10:05:44;;;;;;;3.03;1.17;;;22.60;93.20;;;;;;5031427;28;20135;-62
2022/08/08 10:08:10;;;;;;;5.65;1.15;;;22.70;93.10;;;;;;5029126;28;20045;-61
2022/08/08 10:10:41;;;;;;;3.78;1.10;;;22.80;92.50;;;;;;5021342;28;20586;-61
2022/08/08 10:13:22;;;;;;;3.45;1.10;;;22.90;92.10;;;;;;5049364;28;20045;-61
2022/08/08 10:15:51;;;;;;;3.03;1.20;;;22.90;92.00;;;;;;5031721;28;20044;-62
2022/08/08 10:18:32;;;;;;;5.43;1.10;;;22.90;91.70;;;;;;5020106;28;20055;-61
2022/08/08 10:21:03;;;;;;;2.15;0.90;;;22.90;91.80;;;;;;5033245;28;20067;-61
2022/08/08 10:23:42;;;;;;;1.88;0.90;;;22.90;91.60;;;;;;5049014;28;20044;-61
2022/08/08 10:26:32;;;;;;;4.93;0.95;;;22.90;91.40;;;;;;5038897;28;20472;-61
2022/08/08 10:29:09;;;;;;;4.55;1.05;;;22.90;91.50;;;;;;5049444;28;20127;-61
2022/08/08 10:34:22;;;;;;;2.38;1.05;;;22.90;91.10;;;;;;5047402;28;20037;-62
2022/08/08 10:36:49;;;;;;;9.20;1.65;;;22.90;91.00;;;;;;5018268;28;20191;-61
2022/08/08 10:39:23;;;;;;;3.17;0.90;;;22.90;90.70;;;;;;5054147;28;20115;-61
2022/08/08 10:42:00;;;;;;;2.85;1.10;;;23.10;90.70;;;;;;5052941;28;20052;-61
2022/08/08 10:44:36;;;;;;;4.80;1.20;;;23.20;90.50;;;;;;5051544;28;20130;-61
2022/08/08 10:47:17;;;;;;;3.92;1.10;;;23.40;90.20;;;;;;5040504;28;20336;-61
2022/08/08 10:49:50;;;;;;;4.07;1.13;;;23.50;90.40;;;;;;5052193;28;20137;-61
2022/08/08 10:52:28;;;;;;;2.78;1.30;;;23.70;90.30;;;;;;5052699;28;20047;-62
2022/08/08 10:55:05;;;;;;;2.47;1.00;;;23.80;90.30;;;;;;5035823;28;20050;-61
2022/08/08 10:57:37;;;;;;;3.38;1.20;;;23.80;89.70;;;;;;5053920;28;20050;-62
2022/08/08 11:00:04;;;;;;;2.53;1.10;;;23.90;88.90;;;;;;5034647;28;20053;-62
2022/08/08 11:02:32;;;;;;;3.08;1.10;;;23.80;87.80;;;;;;5051384;28;20059;-61
2022/08/08 11:05:03;;;;;;;5.68;1.15;;;23.80;87.00;;;;;;5052587;28;20157;-61
2022/08/08 11:07:31;;;;;;;4.13;1.20;;;23.80;87.30;;;;;;5026651;28;20044;-61
2022/08/08 11:10:20;;;;;;;3.70;1.27;;;23.80;87.20;;;;;;5053157;28;20049;-61
2022/08/08 11:12:48;;;;;;;2.67;1.08;;;23.80;87.00;;;;;;5052747;28;20037;-61
2022/08/08 11:15:17;;;;;;;4.22;0.98;;;23.90;86.20;;;;;;5025133;28;20399;-62
2022/08/08 11:17:44;;;;;;;1.88;1.00;;;24.00;85.90;;;;;;5051991;28;20409;-62
2022/08/08 11:20:21;;;;;;;4.90;1.08;;;24.10;85.40;;;;;;5044153;28;20056;-62
2022/08/08 11:22:52;;;;;;;3.35;0.95;;;24.30;85.60;;;;;;5049676;28;20037;-62
2022/08/08 11:25:24;;;;;;;2.05;0.88;;;24.30;84.30;;;;;;5052601;28;20067;-62
2022/08/08 11:27:54;;;;;;;3.75;1.10;;;24.40;84.70;;;;;;5034750;28;20113;-62
2022/08/08 11:30:22;;;;;;;2.75;1.00;;;24.50;84.20;;;;;;5049364;28;20052;-62
2022/08/08 11:32:52;;;;;;;1.77;0.90;;;24.60;83.40;;;;;;5051443;28;20041;-62
2022/08/08 11:35:20;;;;;;;3.55;1.05;;;24.60;83.50;;;;;;5033631;28;20102;-62
2022/08/08 11:37:46;;;;;;;4.03;1.27;;;24.70;83.50;;;;;;5034515;28;20063;-62
2022/08/08 11:40:13;;;;;;;1.65;0.80;;;24.70;82.60;;;;;;5030699;28;20055;-62
2022/08/08 11:42:41;;;;;;;4.82;1.00;;;24.90;83.00;;;;;;5050403;28;20041;-62
2022/08/08 11:45:08;;;;;;;2.45;1.08;;;25.00;83.10;;;;;;5050164;28;20172;-61
2022/08/08 11:47:36;;;;;;;3.42;1.10;;;25.10;80.80;;;;;;5050839;28;20647;-62
2022/08/08 11:50:09;;;;;;;5.35;1.10;;;25.20;80.40;;;;;;5029253;28;20123;-62
2022/08/08 11:52:36;;;;;;;2.53;0.93;;;25.20;79.80;;;;;;5034553;28;20040;-61
2022/08/08 11:55:25;;;;;;;3.33;1.38;;;25.00;79.70;;;;;;5051048;28;20045;-61
2022/08/08 11:58:01;;;;;;;4.53;1.20;;;24.80;80.00;;;;;;5051464;28;20052;-62
2022/08/08 12:00:28;;;;;;;7.45;1.23;;;24.60;80.10;;;;;;5044267;28;20076;-62
2022/08/08 12:02:54;;;;;;;2.80;1.00;;;24.50;80.50;;;;;;5050998;28;20471;-62
2022/08/08 12:05:39;;;;;;;7.18;1.10;;;24.30;80.60;;;;;;5022140;28;20591;-62
2022/08/08 12:08:05;;;;;;;2.17;0.82;;;24.20;80.80;;;;;;5033758;28;20056;-62
2022/08/08 12:10:31;;;;;;;2.95;1.00;;;24.10;80.20;;;;;;5049434;28;20037;-62
2022/08/08 12:13:09;;;;;;;2.40;0.90;;;24.00;80.20;;;;;;5033085;28;20475;-62
2022/08/08 12:15:38;;;;;;;2.72;0.90;;;24.00;81.30;;;;;;5031150;28;20048;-63
2022/08/08 12:18:17;;;;;;;2.95;0.90;;;23.90;80.60;;;;;;5050051;28;20053;-61
2022/08/08 12:20:43;;;;;;;3.83;1.23;;;23.80;80.70;;;;;;5034464;28;20048;-62
2022/08/08 12:23:09;;;;;;;2.78;1.00;;;23.80;81.70;;;;;;5052567;28;20044;-62
2022/08/08 12:25:35;;;;;;;3.08;0.80;;;24.10;81.30;;;;;;5030368;28;20052;-62
2022/08/08 12:28:27;;;;;;;2.30;0.93;;;24.50;79.30;;;;;;5033786;28;20041;-62
2022/08/08 12:31:08;;;;;;;2.30;1.00;;;25.00;79.50;;;;;;5047488;28;20079;-62
2022/08/08 12:33:38;;;;;;;3.92;1.10;;;25.50;78.10;;;;;;5052139;28;20091;-62
2022/08/08 12:36:11;;;;;;;3.05;1.10;;;25.90;76.40;;;;;;5050662;28;20050;-62
2022/08/08 12:38:50;;;;;;;4.93;1.00;;;25.90;75.60;;;;;;5018611;28;20049;-62
2022/08/08 12:41:21;;;;;;;3.38;0.90;;;26.20;73.50;;;;;;5031693;28;20052;-62
2022/08/08 12:43:48;;;;;;;2.63;0.85;;;26.50;73.20;;;;;;5034289;28;20459;-62
2022/08/08 12:46:21;;;;;;;4.13;1.10;;;26.60;72.50;;;;;;5050364;28;20051;-62
2022/08/08 12:49:01;;;;;;;3.00;0.90;;;26.50;72.80;;;;;;5051605;28;20060;-62
2022/08/08 12:51:42;;;;;;;2.97;1.08;;;26.30;73.90;;;;;;5032764;28;20041;-62
2022/08/08 12:54:18;;;;;;;3.30;0.90;;;26.20;74.60;;;;;;5017347;28;20049;-62
2022/08/08 12:56:44;;;;;;;2.83;1.13;;;26.00;74.90;;;;;;5046933;28;20057;-62
2022/08/08 12:59:18;;;;;;;4.03;1.27;;;25.80;75.20;;;;;;5050730;28;20055;-62
2022/08/08 13:01:59;;;;;;;2.83;1.20;;;25.60;75.10;;;;;;5029900;28;20052;-62
2022/08/08 13:04:27;;;;;;;2.65;1.00;;;25.40;75.60;;;;;;5050748;28;20500;-62
2022/08/08 13:07:06;;;;;;;4.30;1.33;;;25.30;76.00;;;;;;5052596;28;20045;-62
2022/08/08 13:09:38;;;;;;;3.78;1.27;;;25.20;75.90;;;;;;5026434;28;20049;-62
2022/08/08 13:12:14;;;;;;;3.42;1.00;;;25.00;76.00;;;;;;5048926;28;20048;-62
2022/08/08 13:14:46;;;;;;;3.70;0.80;;;24.90;77.10;;;;;;5047582;28;20045;-62
2022/08/08 13:17:13;;;;;;;3.92;1.17;;;24.90;76.70;;;;;;5030485;28;20044;-62
2022/08/08 13:19:40;;;;;;;5.10;1.08;;;24.80;76.50;;;;;;5013301;28;20052;-62
2022/08/08 13:22:06;;;;;;;4.32;1.13;;;24.70;76.70;;;;;;5031445;28;20263;-62
2022/08/08 13:24:36;;;;;;;1.77;0.82;;;24.70;77.10;;;;;;5024502;28;20041;-62
2022/08/08 13:27:18;;;;;;;5.18;1.00;;;24.80;76.90;;;;;;5049094;28;20151;-62
2022/08/08 13:29:50;;;;;;;3.03;0.98;;;24.80;75.80;;;;;;5033035;28;20047;-62